Time;durP1;ratioP1;P1;durP2;ratioP2;P2;SDS_P1;SDS_P2;PMS_P1;PMS_P2;Temp;Humidity;BMP_temperature;BMP_pressure;BME280_temperature;BME280_humidity;BME280_pressure;Samples;Min_cycle;Max_cycle;Signal;HPM_P1;HPM_P2
2023/10/14 00:02:05;;;;;;;4.80;3.77;;;15.30;99.90;;;;;;5054892;28;20283;-56
2023/10/14 00:04:33;;;;;;;7.70;4.97;;;15.20;99.90;;;;;;5064590;28;20205;-56
2023/10/14 00:07:06;;;;;;;5.97;4.07;;;15.10;99.90;;;;;;5065383;28;20251;-56
2023/10/14 00:09:42;;;;;;;4.77;4.47;;;15.10;99.90;;;;;;5073787;28;20205;-56
2023/10/14 00:12:13;;;;;;;5.87;4.73;;;15.00;99.90;;;;;;5066845;28;20730;-56
2023/10/14 00:14:43;;;;;;;4.33;4.13;;;15.00;99.90;;;;;;5050920;28;20229;-56
2023/10/14 00:17:15;;;;;;;4.73;3.93;;;15.00;99.90;;;;;;5049986;28;20555;-56
2023/10/14 00:19:45;;;;;;;4.27;3.97;;;15.00;99.90;;;;;;5060815;28;20228;-56
2023/10/14 00:22:13;;;;;;;4.23;3.77;;;15.00;99.90;;;;;;5065214;28;20252;-56
2023/10/14 00:24:40;;;;;;;8.57;4.70;;;14.90;99.90;;;;;;5062444;28;20285;-56
2023/10/14 00:27:08;;;;;;;4.40;3.90;;;14.80;99.90;;;;;;5047895;28;20217;-56
2023/10/14 00:29:36;;;;;;;8.13;3.93;;;14.70;99.90;;;;;;5053386;28;20197;-56
2023/10/14 00:32:05;;;;;;;7.87;4.30;;;14.70;99.90;;;;;;5064022;28;20703;-56
2023/10/14 00:34:32;;;;;;;3.40;2.80;;;14.60;99.90;;;;;;5066140;28;20197;-56
2023/10/14 00:36:59;;;;;;;5.07;3.20;;;14.60;99.90;;;;;;5064738;28;20197;-56
2023/10/14 00:39:27;;;;;;;4.80;3.83;;;14.80;99.90;;;;;;5057133;28;20296;-56
2023/10/14 00:41:55;;;;;;;7.20;3.70;;;14.90;99.90;;;;;;5054624;28;20225;-56
2023/10/14 00:44:25;;;;;;;5.33;3.20;;;15.00;99.90;;;;;;5055916;28;20198;-56
2023/10/14 00:46:53;;;;;;;4.10;3.70;;;14.90;99.90;;;;;;5053871;28;20305;-57
2023/10/14 00:49:22;;;;;;;5.07;3.33;;;14.80;99.90;;;;;;5072990;28;20200;-56
2023/10/14 00:51:55;;;;;;;6.80;3.63;;;14.90;99.90;;;;;;5061821;28;20218;-56
2023/10/14 00:54:40;;;;;;;9.77;3.77;;;14.80;99.90;;;;;;5065884;28;20660;-56
2023/10/14 00:57:19;;;;;;;2.97;2.67;;;14.90;99.90;;;;;;5055397;28;20197;-56
2023/10/14 00:59:48;;;;;;;4.47;3.47;;;14.80;99.90;;;;;;5062589;28;20211;-56
2023/10/14 01:02:15;;;;;;;4.87;3.43;;;14.80;99.90;;;;;;5059214;28;20230;-56
2023/10/14 01:04:51;;;;;;;3.27;2.97;;;14.70;99.90;;;;;;5054154;28;20229;-56
2023/10/14 01:07:18;;;;;;;4.80;3.50;;;14.70;99.90;;;;;;5059091;28;20260;-56
2023/10/14 01:09:52;;;;;;;3.73;3.37;;;14.80;99.90;;;;;;5059624;28;20266;-56
2023/10/14 01:12:23;;;;;;;5.57;4.07;;;14.60;99.90;;;;;;5058371;28;20226;-56
2023/10/14 01:14:52;;;;;;;4.93;3.37;;;14.50;99.90;;;;;;5049932;28;20573;-56
2023/10/14 01:17:26;;;;;;;5.50;3.70;;;14.40;99.90;;;;;;5059712;28;20244;-56
2023/10/14 01:19:54;;;;;;;3.47;3.13;;;14.40;99.90;;;;;;5070632;28;20572;-55
2023/10/14 01:22:23;;;;;;;4.30;3.60;;;14.40;99.90;;;;;;5067474;28;20229;-55
2023/10/14 01:24:52;;;;;;;5.97;3.87;;;14.40;99.90;;;;;;5053688;28;20194;-56
2023/10/14 01:27:21;;;;;;;5.40;4.30;;;14.40;99.90;;;;;;5049969;28;20221;-56
2023/10/14 01:29:51;;;;;;;11.20;3.77;;;14.30;99.90;;;;;;5059912;28;20206;-56
2023/10/14 01:32:42;;;;;;;4.80;4.00;;;14.40;99.90;;;;;;5057746;28;20226;-56
2023/10/14 01:35:24;;;;;;;4.70;3.03;;;14.40;99.90;;;;;;5047183;28;20625;-56
2023/10/14 01:37:53;;;;;;;7.03;3.53;;;14.30;99.90;;;;;;5052492;28;20204;-56
2023/10/14 01:40:29;;;;;;;3.83;2.60;;;14.30;99.90;;;;;;5043545;28;20209;-56
2023/10/14 01:42:58;;;;;;;5.60;3.67;;;14.20;99.90;;;;;;5045417;28;20209;-56
2023/10/14 01:45:28;;;;;;;6.23;3.70;;;14.30;99.90;;;;;;5043196;28;20613;-56
2023/10/14 01:48:12;;;;;;;3.57;3.27;;;14.30;99.90;;;;;;5045156;28;20222;-56
2023/10/14 01:50:44;;;;;;;4.03;3.10;;;14.40;99.90;;;;;;5043678;28;20222;-56
2023/10/14 01:53:13;;;;;;;4.57;2.83;;;14.40;99.90;;;;;;5045033;28;20237;-57
2023/10/14 01:55:42;;;;;;;4.77;3.47;;;14.40;99.90;;;;;;5048199;28;20193;-56
2023/10/14 01:58:10;;;;;;;4.53;2.97;;;14.50;99.90;;;;;;5050470;28;20659;-56
2023/10/14 02:00:39;;;;;;;3.70;3.40;;;14.50;99.90;;;;;;5042994;28;20720;-56
2023/10/14 02:03:07;;;;;;;5.03;3.20;;;14.50;99.90;;;;;;5067587;28;20194;-56
2023/10/14 02:05:39;;;;;;;5.37;2.87;;;14.50;99.90;;;;;;5051457;28;20240;-56
2023/10/14 02:08:13;;;;;;;5.57;3.73;;;14.60;99.90;;;;;;5053628;28;20229;-56
2023/10/14 02:10:46;;;;;;;4.00;3.57;;;14.60;99.90;;;;;;5055046;28;20221;-56
2023/10/14 02:13:15;;;;;;;8.13;3.87;;;14.70;99.90;;;;;;5049998;28;20202;-56
2023/10/14 02:15:46;;;;;;;5.00;4.00;;;14.80;99.90;;;;;;5057719;28;20201;-55
2023/10/14 02:18:15;;;;;;;8.20;3.43;;;14.80;99.90;;;;;;5055842;28;20613;-56
2023/10/14 02:20:56;;;;;;;4.87;3.53;;;15.00;99.90;;;;;;5062911;28;20218;-56
2023/10/14 02:23:25;;;;;;;6.30;3.00;;;15.20;99.90;;;;;;5049984;28;20202;-56
2023/10/14 02:25:57;;;;;;;3.63;3.07;;;15.40;99.90;;;;;;5048825;28;20268;-56
2023/10/14 02:28:27;;;;;;;3.20;2.43;;;15.80;99.90;;;;;;5051248;28;20227;-56
2023/10/14 02:30:59;;;;;;;4.53;2.47;;;16.10;99.90;;;;;;5048256;28;20217;-56
2023/10/14 02:33:26;;;;;;;5.03;2.83;;;16.40;99.90;;;;;;5058894;28;20202;-56
2023/10/14 02:35:59;;;;;;;2.10;2.00;;;16.60;99.90;;;;;;5064507;28;20203;-56
2023/10/14 02:38:26;;;;;;;4.43;2.83;;;16.60;99.90;;;;;;5052159;28;20209;-56
2023/10/14 02:40:56;;;;;;;9.83;2.80;;;16.60;99.90;;;;;;5047936;28;20222;-56
2023/10/14 02:43:24;;;;;;;3.00;2.73;;;16.70;99.90;;;;;;5057482;28;20666;-56
2023/10/14 02:45:58;;;;;;;5.37;2.93;;;16.70;99.90;;;;;;5057774;28;20201;-56
2023/10/14 02:48:49;;;;;;;3.10;2.83;;;16.80;99.90;;;;;;5058170;28;20220;-56
2023/10/14 02:51:16;;;;;;;3.70;3.03;;;16.90;99.90;;;;;;5053602;28;20255;-56
2023/10/14 02:53:45;;;;;;;5.43;2.90;;;16.90;99.90;;;;;;5062642;28;20228;-56
2023/10/14 02:56:21;;;;;;;4.67;3.53;;;16.80;99.90;;;;;;5050979;28;20586;-56
2023/10/14 02:58:48;;;;;;;3.90;3.47;;;16.80;99.90;;;;;;5050977;28;20205;-56
2023/10/14 03:01:16;;;;;;;4.63;3.17;;;16.60;99.90;;;;;;5043687;28;20729;-56
2023/10/14 03:03:46;;;;;;;4.60;3.90;;;16.60;99.90;;;;;;5059752;28;20285;-56
2023/10/14 03:06:14;;;;;;;4.63;3.63;;;16.50;99.90;;;;;;5055244;28;20205;-56
2023/10/14 03:08:57;;;;;;;3.80;3.50;;;16.40;99.90;;;;;;5052583;28;20231;-56
2023/10/14 03:11:26;;;;;;;3.83;3.53;;;16.30;99.90;;;;;;5055446;28;20210;-56
2023/10/14 03:13:53;;;;;;;5.63;3.20;;;16.20;99.90;;;;;;5061085;28;20198;-56
2023/10/14 03:16:20;;;;;;;4.13;2.97;;;16.00;99.90;;;;;;5053647;28;20259;-56
2023/10/14 03:18:47;;;;;;;5.07;3.17;;;16.00;99.90;;;;;;5061601;28;20606;-56
2023/10/14 03:21:31;;;;;;;4.57;2.80;;;15.90;99.90;;;;;;5073209;28;20225;-56
2023/10/14 03:23:58;;;;;;;4.43;3.10;;;15.90;99.90;;;;;;5052693;28;20193;-56
2023/10/14 03:26:32;;;;;;;6.67;3.93;;;15.90;99.90;;;;;;5052738;28;20661;-56
2023/10/14 03:29:04;;;;;;;3.50;3.30;;;15.90;99.90;;;;;;5064217;28;20213;-56
2023/10/14 03:31:35;;;;;;;5.33;2.47;;;15.90;99.90;;;;;;5063375;28;20221;-56
2023/10/14 03:34:08;;;;;;;5.23;3.03;;;15.80;99.90;;;;;;5056003;28;20194;-56
2023/10/14 03:36:35;;;;;;;3.83;3.07;;;15.70;99.90;;;;;;5059647;28;20194;-56
2023/10/14 03:39:19;;;;;;;2.80;2.60;;;15.80;99.90;;;;;;5060195;28;20193;-56
2023/10/14 03:41:52;;;;;;;3.30;2.57;;;15.80;99.90;;;;;;5049805;28;20324;-56
2023/10/14 03:44:22;;;;;;;4.63;2.83;;;15.70;99.90;;;;;;5042113;28;20202;-56
2023/10/14 03:46:59;;;;;;;4.10;3.00;;;15.70;99.90;;;;;;5042731;28;20276;-56
2023/10/14 03:49:26;;;;;;;3.77;3.13;;;15.70;99.90;;;;;;5053597;28;20217;-56
2023/10/14 03:51:56;;;;;;;4.03;3.13;;;15.70;99.90;;;;;;5051727;28;20774;-56
2023/10/14 03:54:26;;;;;;;4.83;3.20;;;15.60;99.90;;;;;;5053788;28;20573;-56
2023/10/14 03:56:57;;;;;;;5.53;3.30;;;15.60;99.90;;;;;;5053654;28;20202;-56
2023/10/14 03:59:25;;;;;;;4.00;2.80;;;15.60;99.90;;;;;;5053819;28;20205;-56
2023/10/14 04:01:57;;;;;;;4.90;3.93;;;15.60;99.90;;;;;;5050775;28;20226;-56
2023/10/14 04:04:26;;;;;;;4.67;4.27;;;15.60;99.90;;;;;;5041947;28;20313;-56
2023/10/14 04:07:13;;;;;;;5.90;4.20;;;15.60;99.90;;;;;;5039780;28;20199;-56
2023/10/14 04:09:44;;;;;;;4.57;3.43;;;15.60;99.90;;;;;;5051698;28;20718;-56
2023/10/14 04:12:28;;;;;;;4.47;3.77;;;15.60;99.90;;;;;;5049741;28;20224;-56
2023/10/14 04:14:55;;;;;;;4.50;4.10;;;15.60;99.90;;;;;;5039341;28;20199;-56
2023/10/14 04:17:30;;;;;;;6.50;4.20;;;15.60;99.90;;;;;;5043750;28;20285;-56
2023/10/14 04:20:14;;;;;;;7.07;4.90;;;15.60;99.90;;;;;;5034979;28;20209;-56
2023/10/14 04:22:42;;;;;;;4.00;3.70;;;15.60;99.90;;;;;;5042938;28;20199;-57
2023/10/14 04:25:19;;;;;;;5.83;3.83;;;15.60;99.90;;;;;;5041049;28;20276;-56
2023/10/14 04:28:17;;;;;;;4.20;3.90;;;15.70;99.90;;;;;;5047169;28;20266;-56
2023/10/14 04:30:45;;;;;;;3.90;3.40;;;15.70;99.90;;;;;;5048974;28;20268;-56
2023/10/14 04:33:22;;;;;;;6.30;3.33;;;15.70;99.90;;;;;;5035788;28;20225;-57
2023/10/14 04:36:09;;;;;;;4.03;3.40;;;15.70;99.90;;;;;;5050119;28;20661;-56
2023/10/14 04:38:42;;;;;;;8.07;3.97;;;15.70;99.90;;;;;;5042662;28;20205;-56
2023/10/14 04:41:13;;;;;;;4.10;3.73;;;15.70;99.90;;;;;;5044627;28;20580;-56
2023/10/14 04:44:00;;;;;;;5.73;3.23;;;15.70;99.90;;;;;;5037956;28;20213;-56
2023/10/14 04:46:45;;;;;;;5.23;3.80;;;15.70;99.90;;;;;;5041243;28;20305;-56
2023/10/14 04:49:15;;;;;;;4.10;3.70;;;15.90;99.90;;;;;;5043292;28;20697;-56
2023/10/14 04:51:46;;;;;;;4.37;3.97;;;15.80;99.90;;;;;;5041451;28;20689;-56
2023/10/14 04:54:19;;;;;;;6.03;4.50;;;15.80;99.90;;;;;;5042416;28;20194;-56
2023/10/14 04:56:46;;;;;;;4.47;3.33;;;15.90;99.90;;;;;;5040609;28;20201;-56
2023/10/14 04:59:22;;;;;;;7.97;5.27;;;15.90;99.90;;;;;;5044010;28;20198;-56
2023/10/14 05:01:50;;;;;;;6.30;4.70;;;15.90;99.90;;;;;;5043451;28;20252;-56
2023/10/14 05:04:20;;;;;;;7.83;4.70;;;15.80;99.90;;;;;;5046032;28;20199;-56
2023/10/14 05:06:48;;;;;;;5.63;4.57;;;15.80;99.90;;;;;;5043647;28;20206;-56
2023/10/14 05:09:29;;;;;;;8.13;5.10;;;15.80;99.90;;;;;;5045477;28;20287;-56
2023/10/14 05:11:56;;;;;;;5.33;4.83;;;15.80;99.90;;;;;;5047591;28;20760;-56
2023/10/14 05:14:34;;;;;;;6.03;5.50;;;15.70;99.90;;;;;;5041183;28;20246;-56
2023/10/14 05:17:14;;;;;;;4.23;3.93;;;15.70;99.90;;;;;;5043929;28;20554;-56
2023/10/14 05:19:43;;;;;;;9.73;5.50;;;15.80;99.90;;;;;;5043316;28;20203;-56
2023/10/14 05:22:18;;;;;;;4.93;4.47;;;15.80;99.90;;;;;;5050465;28;20309;-56
2023/10/14 05:25:02;;;;;;;6.43;4.83;;;15.70;99.90;;;;;;5050585;28;20667;-56
2023/10/14 05:27:46;;;;;;;4.80;4.20;;;15.70;99.90;;;;;;5043694;28;20211;-56
2023/10/14 05:30:21;;;;;;;6.23;3.90;;;15.70;99.90;;;;;;5044166;28;20285;-56
2023/10/14 05:32:48;;;;;;;5.73;4.70;;;15.70;99.90;;;;;;5036086;28;20702;-57
2023/10/14 05:35:15;;;;;;;5.13;4.60;;;15.60;99.90;;;;;;5043043;28;20673;-56
2023/10/14 05:37:47;;;;;;;5.93;4.13;;;15.60;99.90;;;;;;5039058;28;20198;-56
2023/10/14 05:40:15;;;;;;;5.37;4.87;;;15.50;99.90;;;;;;5048449;28;20603;-56
2023/10/14 05:42:46;;;;;;;6.83;4.60;;;15.50;99.90;;;;;;5044767;28;20251;-56
2023/10/14 05:45:15;;;;;;;4.20;3.87;;;15.60;99.90;;;;;;5048785;28;20284;-56
2023/10/14 05:47:43;;;;;;;5.10;4.60;;;15.50;99.90;;;;;;5041910;28;20522;-56
2023/10/14 05:50:15;;;;;;;7.80;4.80;;;15.50;99.90;;;;;;5050529;28;20217;-61
2023/10/14 05:52:46;;;;;;;5.77;4.23;;;15.40;99.90;;;;;;5048258;28;20220;-61
2023/10/14 05:55:17;;;;;;;7.07;3.80;;;15.40;99.90;;;;;;5043318;28;20623;-62
2023/10/14 05:57:44;;;;;;;4.37;3.83;;;15.50;99.90;;;;;;5035358;28;20677;-62
2023/10/14 06:00:20;;;;;;;4.30;3.97;;;15.60;99.90;;;;;;5034888;28;20608;-62
2023/10/14 06:02:51;;;;;;;6.00;5.50;;;15.60;99.90;;;;;;5040014;28;20202;-61
2023/10/14 06:05:20;;;;;;;7.77;4.97;;;15.50;99.90;;;;;;5044797;28;20577;-61
2023/10/14 06:07:47;;;;;;;5.07;4.60;;;15.50;99.90;;;;;;5036819;28;20202;-57
2023/10/14 06:10:20;;;;;;;9.50;5.97;;;15.60;99.90;;;;;;5036576;28;20253;-58
2023/10/14 06:12:50;;;;;;;4.90;4.40;;;15.50;99.90;;;;;;5041171;28;20248;-58
2023/10/14 06:15:21;;;;;;;4.60;4.20;;;15.60;99.90;;;;;;5046879;28;20198;-58
2023/10/14 06:17:50;;;;;;;7.07;3.87;;;15.60;99.90;;;;;;5041761;28;20259;-58
2023/10/14 06:20:20;;;;;;;5.97;4.10;;;15.70;99.90;;;;;;5040568;28;20294;-58
2023/10/14 06:22:47;;;;;;;10.13;4.73;;;15.70;99.90;;;;;;5042342;28;20197;-58
2023/10/14 06:25:16;;;;;;;6.33;5.03;;;15.70;99.90;;;;;;5041874;28;20584;-58
2023/10/14 06:27:46;;;;;;;5.90;5.37;;;15.80;99.90;;;;;;5042218;28;20206;-58
2023/10/14 06:30:20;;;;;;;6.47;5.87;;;16.00;99.90;;;;;;5042593;28;20218;-63
2023/10/14 06:32:52;;;;;;;6.73;6.13;;;15.90;99.90;;;;;;5040793;28;20245;-59
2023/10/14 06:35:20;;;;;;;5.70;4.80;;;15.90;99.90;;;;;;5043096;28;20704;-58
2023/10/14 06:37:48;;;;;;;6.47;5.37;;;15.90;99.90;;;;;;5035827;28;20210;-58
2023/10/14 06:40:18;;;;;;;6.03;5.47;;;15.80;99.90;;;;;;5041043;28;20201;-59
2023/10/14 06:42:48;;;;;;;9.03;6.10;;;15.80;99.90;;;;;;5035858;28;20720;-59
2023/10/14 06:45:17;;;;;;;8.20;6.43;;;15.80;99.90;;;;;;5033145;28;20201;-58
2023/10/14 06:47:49;;;;;;;4.93;4.57;;;15.80;99.90;;;;;;5039780;28;20666;-59
2023/10/14 06:50:23;;;;;;;6.50;5.90;;;15.80;99.90;;;;;;5038893;28;20233;-59
2023/10/14 06:52:58;;;;;;;8.17;5.87;;;15.80;99.90;;;;;;5039373;28;20245;-59
2023/10/14 06:55:26;;;;;;;6.97;5.80;;;15.70;99.90;;;;;;5041163;28;20204;-63
2023/10/14 06:57:55;;;;;;;9.73;5.80;;;15.80;99.90;;;;;;5043513;28;20206;-60
2023/10/14 07:00:31;;;;;;;10.87;9.83;;;15.70;99.90;;;;;;5034839;28;20197;-62
2023/10/14 07:03:00;;;;;;;8.97;6.80;;;15.70;99.90;;;;;;5042478;28;20197;-61
2023/10/14 07:05:30;;;;;;;8.63;6.80;;;15.70;99.90;;;;;;5037314;28;20281;-58
2023/10/14 07:07:58;;;;;;;7.53;6.50;;;15.70;99.90;;;;;;5042349;28;20203;-57
2023/10/14 07:10:32;;;;;;;6.43;5.83;;;15.70;99.90;;;;;;5040666;28;20308;-58
2023/10/14 07:13:00;;;;;;;8.23;6.83;;;15.70;99.90;;;;;;5034471;28;20202;-57
2023/10/14 07:15:29;;;;;;;8.00;7.20;;;15.80;99.90;;;;;;5032640;28;20202;-58
2023/10/14 07:17:57;;;;;;;10.07;7.13;;;15.80;99.90;;;;;;5039370;28;20618;-60
2023/10/14 07:20:25;;;;;;;8.80;6.43;;;16.00;99.90;;;;;;5036474;28;20198;-59
2023/10/14 07:22:53;;;;;;;13.60;9.27;;;15.90;99.90;;;;;;5038355;28;20206;-54
2023/10/14 07:25:23;;;;;;;11.93;8.73;;;15.90;99.90;;;;;;5046425;28;20206;-60
2023/10/14 07:27:51;;;;;;;7.50;6.60;;;16.00;99.90;;;;;;5043185;28;20202;-60
2023/10/14 07:30:19;;;;;;;10.10;9.00;;;16.00;99.90;;;;;;5035381;28;20284;-59
2023/10/14 07:32:48;;;;;;;14.87;12.10;;;16.10;99.90;;;;;;5045625;28;20198;-58
2023/10/14 07:35:17;;;;;;;15.57;8.43;;;16.20;99.90;;;;;;5040129;28;20257;-58
2023/10/14 07:37:46;;;;;;;7.97;7.17;;;16.20;99.90;;;;;;5041715;28;20198;-57
2023/10/14 07:40:23;;;;;;;7.00;6.30;;;16.20;99.90;;;;;;5039680;28;20261;-58
2023/10/14 07:42:54;;;;;;;7.30;6.43;;;16.30;99.90;;;;;;5040042;28;20288;-58
2023/10/14 07:45:23;;;;;;;8.23;6.77;;;16.30;99.90;;;;;;5042830;28;20271;-58
2023/10/14 07:47:49;;;;;;;7.20;6.33;;;16.40;99.90;;;;;;5046159;28;20297;-58
2023/10/14 07:50:16;;;;;;;6.77;6.10;;;16.50;99.90;;;;;;5040544;28;20790;-58
2023/10/14 07:52:43;;;;;;;7.87;7.07;;;16.50;99.90;;;;;;5051689;28;20259;-58
2023/10/14 07:55:15;;;;;;;6.43;5.93;;;16.50;99.90;;;;;;5052351;28;21438;-59
2023/10/14 07:57:46;;;;;;;6.63;5.93;;;16.60;99.90;;;;;;5051275;28;20280;-56
2023/10/14 08:00:26;;;;;;;6.70;5.17;;;16.60;99.90;;;;;;5050014;28;20278;-57
2023/10/14 08:02:53;;;;;;;5.73;4.70;;;16.70;99.90;;;;;;5051189;28;20292;-59
2023/10/14 08:05:20;;;;;;;5.47;4.97;;;16.80;99.90;;;;;;5052221;28;20686;-61
2023/10/14 08:07:47;;;;;;;7.97;4.43;;;16.90;99.90;;;;;;5049899;28;20194;-61
2023/10/14 08:10:21;;;;;;;3.73;3.50;;;16.80;99.90;;;;;;5044233;28;20249;-61
2023/10/14 08:12:53;;;;;;;5.67;4.30;;;16.70;99.90;;;;;;5051828;28;20289;-58
2023/10/14 08:15:20;;;;;;;3.97;3.53;;;16.70;99.90;;;;;;5044879;28;20202;-57
2023/10/14 08:17:50;;;;;;;3.47;3.27;;;16.70;99.90;;;;;;5049335;28;20197;-57
2023/10/14 08:20:19;;;;;;;4.30;3.90;;;16.80;99.90;;;;;;5042875;28;20190;-57
2023/10/14 08:22:48;;;;;;;5.53;4.03;;;16.80;99.90;;;;;;5052172;28;20263;-57
2023/10/14 08:25:18;;;;;;;3.53;3.00;;;16.90;99.90;;;;;;5051436;28;20736;-57
2023/10/14 08:27:46;;;;;;;6.33;3.27;;;16.90;99.90;;;;;;5050718;28;20197;-58
2023/10/14 08:30:16;;;;;;;4.23;3.87;;;16.90;99.90;;;;;;5049629;28;20214;-57
2023/10/14 08:32:44;;;;;;;2.47;2.33;;;16.90;99.90;;;;;;5040705;28;20644;-56
2023/10/14 08:35:16;;;;;;;2.97;2.77;;;16.90;99.90;;;;;;5041951;28;20260;-56
2023/10/14 08:37:47;;;;;;;4.13;2.60;;;16.90;99.90;;;;;;5043581;28;20206;-56
2023/10/14 08:40:16;;;;;;;2.20;2.07;;;17.00;99.90;;;;;;5039534;28;20229;-56
2023/10/14 08:42:49;;;;;;;1.87;1.77;;;17.00;99.90;;;;;;5047662;28;20263;-56
2023/10/14 08:45:19;;;;;;;1.50;1.40;;;17.00;99.90;;;;;;5040312;28;20634;-56
2023/10/14 08:47:48;;;;;;;1.80;1.70;;;17.00;99.90;;;;;;5045160;28;20213;-56
2023/10/14 08:50:17;;;;;;;2.07;1.97;;;17.00;99.90;;;;;;5045325;28;20309;-56
2023/10/14 08:52:45;;;;;;;1.80;1.70;;;17.00;99.90;;;;;;5050626;28;20201;-56
2023/10/14 08:55:15;;;;;;;1.77;1.67;;;17.00;99.90;;;;;;5042354;28;20205;-56
2023/10/14 08:57:44;;;;;;;1.47;1.47;;;17.00;99.90;;;;;;5046657;28;20233;-56
2023/10/14 09:00:13;;;;;;;1.17;1.10;;;17.00;99.90;;;;;;5048414;28;20435;-56
2023/10/14 09:02:42;;;;;;;3.43;1.47;;;17.10;99.90;;;;;;5050266;28;20247;-56
2023/10/14 09:05:11;;;;;;;1.93;1.27;;;17.10;99.90;;;;;;5056562;22;20652;-59
2023/10/14 09:07:39;;;;;;;1.23;1.00;;;17.10;99.90;;;;;;5037526;28;20245;-59
2023/10/14 09:10:09;;;;;;;1.70;1.37;;;17.10;99.90;;;;;;5032722;28;20643;-59
2023/10/14 09:12:36;;;;;;;1.63;1.53;;;17.00;99.90;;;;;;5039758;28;20201;-59
2023/10/14 09:15:03;;;;;;;2.43;1.57;;;17.10;99.90;;;;;;5025370;28;20239;-59
2023/10/14 09:17:30;;;;;;;1.50;1.47;;;17.00;99.90;;;;;;5030954;28;20272;-59
2023/10/14 09:20:01;;;;;;;2.03;1.80;;;17.00;99.90;;;;;;5026901;28;20195;-59
2023/10/14 09:22:33;;;;;;;2.97;2.77;;;16.90;99.90;;;;;;5025391;28;20251;-59
2023/10/14 09:25:00;;;;;;;1.87;1.77;;;17.00;99.90;;;;;;5025944;28;20231;-59
2023/10/14 09:27:30;;;;;;;2.33;1.73;;;17.10;99.90;;;;;;5022287;28;20276;-59
2023/10/14 09:29:58;;;;;;;1.73;1.63;;;17.20;99.90;;;;;;5022647;28;20223;-59
2023/10/14 09:32:25;;;;;;;2.13;2.03;;;17.40;99.90;;;;;;5023348;28;20674;-59
2023/10/14 09:34:52;;;;;;;2.73;2.53;;;17.40;99.90;;;;;;5019124;28;20222;-59
2023/10/14 09:37:23;;;;;;;5.00;2.60;;;17.60;99.90;;;;;;5017433;28;20267;-59
2023/10/14 09:39:57;;;;;;;2.13;1.90;;;17.80;99.90;;;;;;5031244;28;20206;-59
2023/10/14 09:42:26;;;;;;;2.70;2.50;;;17.90;99.90;;;;;;5023267;28;20689;-59
2023/10/14 09:44:55;;;;;;;2.80;2.57;;;18.10;99.90;;;;;;5026765;28;20357;-59
2023/10/14 09:47:25;;;;;;;2.70;2.60;;;18.30;99.90;;;;;;5024409;28;20276;-59
2023/10/14 09:49:53;;;;;;;4.53;4.13;;;18.60;99.90;;;;;;5029174;28;20215;-59
2023/10/14 09:52:22;;;;;;;3.47;2.77;;;18.80;99.90;;;;;;5029665;28;20248;-59
2023/10/14 09:54:52;;;;;;;4.20;3.83;;;19.20;99.90;;;;;;5029738;28;20218;-59
2023/10/14 09:57:20;;;;;;;3.37;3.17;;;19.90;99.90;;;;;;5014753;28;20657;-59
2023/10/14 09:59:48;;;;;;;3.97;3.77;;;20.50;99.90;;;;;;5026940;28;20557;-59
2023/10/14 10:02:16;;;;;;;4.20;3.90;;;21.10;99.90;;;;;;5029425;28;20209;-59
2023/10/14 10:04:47;;;;;;;5.57;5.00;;;21.20;99.90;;;;;;5029689;28;20262;-59
2023/10/14 10:07:41;;;;;;;4.77;3.93;;;21.00;99.90;;;;;;5029057;28;20206;-59
2023/10/14 10:10:19;;;;;;;4.70;4.30;;;21.50;99.90;;;;;;5029458;28;20230;-59
2023/10/14 10:12:53;;;;;;;3.37;3.07;;;22.10;99.90;;;;;;5024889;28;20202;-59
2023/10/14 10:15:20;;;;;;;3.57;3.23;;;22.50;99.90;;;;;;5026852;28;20225;-59
2023/10/14 10:17:56;;;;;;;5.53;2.43;;;22.70;99.90;;;;;;5029618;28;20276;-59
2023/10/14 10:20:29;;;;;;;2.77;2.67;;;22.50;99.90;;;;;;5015133;28;20199;-59
2023/10/14 10:22:58;;;;;;;3.83;2.80;;;23.00;99.90;;;;;;5018987;28;20678;-70
2023/10/14 10:25:51;;;;;;;4.60;3.07;;;23.30;99.90;;;;;;5026401;28;20242;-70
2023/10/14 10:28:40;;;;;;;3.70;2.07;;;23.30;99.90;;;;;;5030301;28;20292;-70
2023/10/14 10:31:09;;;;;;;2.47;2.30;;;22.90;99.90;;;;;;5011314;28;20226;-67
2023/10/14 10:34:03;;;;;;;4.03;2.00;;;22.60;99.90;;;;;;5021797;28;20233;-58
2023/10/14 10:36:31;;;;;;;2.27;2.17;;;22.50;99.90;;;;;;4996182;28;20202;-59
2023/10/14 10:39:16;;;;;;;2.60;2.17;;;22.60;99.90;;;;;;5027122;28;20214;-58
2023/10/14 10:41:43;;;;;;;2.80;1.87;;;22.60;99.90;;;;;;5024396;28;20218;-59
2023/10/14 10:44:12;;;;;;;2.17;1.83;;;22.80;99.90;;;;;;5022280;28;20235;-59
2023/10/14 10:46:41;;;;;;;4.10;1.70;;;22.70;99.90;;;;;;5011182;28;20209;-58
2023/10/14 10:49:11;;;;;;;2.17;2.07;;;22.30;99.90;;;;;;5028467;28;20221;-58
2023/10/14 10:51:50;;;;;;;2.50;2.30;;;21.90;99.90;;;;;;5029542;28;20249;-59
2023/10/14 10:54:22;;;;;;;3.17;2.73;;;21.80;99.90;;;;;;5029208;28;20291;-59
2023/10/14 10:56:49;;;;;;;3.87;2.63;;;21.70;99.90;;;;;;5020860;28;20210;-65
2023/10/14 10:59:16;;;;;;;3.13;2.53;;;21.50;99.90;;;;;;5015995;28;20212;-64
2023/10/14 11:01:43;;;;;;;3.03;2.73;;;21.20;99.90;;;;;;5027647;28;20198;-64
2023/10/14 11:04:12;;;;;;;2.30;2.17;;;21.00;99.90;;;;;;5027865;28;20280;-65
2023/10/14 11:06:39;;;;;;;3.10;2.67;;;20.70;99.90;;;;;;5029574;28;20313;-64
2023/10/14 11:09:07;;;;;;;4.97;3.50;;;20.60;99.90;;;;;;5029725;28;20211;-64
2023/10/14 11:11:37;;;;;;;3.33;2.53;;;20.60;99.90;;;;;;5016056;28;20215;-66
2023/10/14 11:14:17;;;;;;;3.73;3.20;;;20.60;99.90;;;;;;5011725;28;20277;-64
2023/10/14 11:16:45;;;;;;;3.67;3.00;;;20.60;99.90;;;;;;5029403;28;20629;-67
2023/10/14 11:19:12;;;;;;;2.37;2.17;;;20.70;99.90;;;;;;5026747;28;20230;-66
2023/10/14 11:21:40;;;;;;;2.90;2.70;;;20.60;99.90;;;;;;5024858;28;20203;-63
2023/10/14 11:24:09;;;;;;;4.03;2.63;;;20.60;99.90;;;;;;5026630;28;20228;-68
2023/10/14 11:26:38;;;;;;;3.83;2.57;;;20.70;99.90;;;;;;5027900;28;20202;-65
2023/10/14 11:29:06;;;;;;;4.23;2.70;;;20.90;99.90;;;;;;5032965;28;20217;-66
2023/10/14 11:31:33;;;;;;;2.80;2.53;;;21.20;99.90;;;;;;5030129;28;20222;-65
2023/10/14 11:34:02;;;;;;;2.57;2.37;;;21.30;99.90;;;;;;5027967;28;20284;-68
2023/10/14 11:36:29;;;;;;;8.53;2.57;;;21.50;99.90;;;;;;5021933;28;20206;-67
2023/10/14 11:38:58;;;;;;;3.17;2.50;;;21.50;99.90;;;;;;5014597;28;20199;-67
2023/10/14 11:41:27;;;;;;;4.37;2.03;;;21.70;99.90;;;;;;5024973;28;20282;-68
2023/10/14 11:43:56;;;;;;;2.67;2.47;;;21.70;99.90;;;;;;5032322;28;20222;-69
2023/10/14 11:46:23;;;;;;;3.13;2.37;;;21.60;99.90;;;;;;5025754;28;20202;-70
2023/10/14 11:48:50;;;;;;;2.93;2.20;;;21.40;99.90;;;;;;5030043;28;20662;-67
2023/10/14 11:51:21;;;;;;;2.30;2.20;;;21.20;99.90;;;;;;5032040;28;20701;-67
2023/10/14 11:53:52;;;;;;;4.27;3.13;;;21.00;99.90;;;;;;5019476;28;20226;-68
2023/10/14 11:56:20;;;;;;;2.60;2.40;;;20.70;99.90;;;;;;5032420;28;20576;-68
2023/10/14 11:58:49;;;;;;;3.73;2.73;;;20.50;99.90;;;;;;5031888;28;20214;-73
2023/10/14 12:01:23;;;;;;;3.03;2.73;;;20.40;99.90;;;;;;5014199;28;20249;-59
2023/10/14 12:03:50;;;;;;;5.73;2.93;;;20.40;99.90;;;;;;5031850;28;20624;-59
2023/10/14 12:06:17;;;;;;;4.30;2.73;;;20.40;99.90;;;;;;5027472;28;20260;-66
2023/10/14 12:08:45;;;;;;;3.03;2.87;;;20.50;99.90;;;;;;5032650;28;20202;-70
2023/10/14 12:11:13;;;;;;;2.73;2.53;;;20.60;99.90;;;;;;5032439;28;20254;-58
2023/10/14 12:13:41;;;;;;;2.60;2.40;;;20.60;99.90;;;;;;5031841;28;20226;-58
2023/10/14 12:16:08;;;;;;;2.47;2.23;;;20.60;99.90;;;;;;5032596;28;20294;-58
2023/10/14 12:18:37;;;;;;;2.40;2.20;;;20.60;99.90;;;;;;5025929;28;20195;-58
2023/10/14 12:21:04;;;;;;;2.30;2.10;;;20.60;99.90;;;;;;5014488;28;20299;-58
2023/10/14 12:23:32;;;;;;;2.23;2.13;;;20.70;99.90;;;;;;5032189;28;20222;-59
2023/10/14 12:26:00;;;;;;;2.80;2.53;;;20.70;99.90;;;;;;5032239;28;20233;-59
2023/10/14 12:28:30;;;;;;;3.03;2.93;;;20.70;99.90;;;;;;5025259;28;20199;-59
2023/10/14 12:30:58;;;;;;;2.93;2.20;;;20.80;99.90;;;;;;5032005;28;20222;-59
2023/10/14 12:33:31;;;;;;;2.57;2.37;;;20.90;99.90;;;;;;5025926;28;20345;-59
2023/10/14 12:36:06;;;;;;;2.20;2.10;;;20.90;99.90;;;;;;5018502;28;20230;-59
2023/10/14 12:38:33;;;;;;;2.70;2.50;;;20.90;99.90;;;;;;5027920;28;20337;-60
2023/10/14 12:41:02;;;;;;;2.70;2.17;;;20.90;99.90;;;;;;5031728;28;20267;-59
2023/10/14 12:43:33;;;;;;;4.20;2.57;;;20.90;99.90;;;;;;5027250;28;20590;-59
2023/10/14 12:46:12;;;;;;;2.97;2.57;;;20.80;99.90;;;;;;5031825;28;20234;-59
2023/10/14 12:48:40;;;;;;;2.70;2.50;;;20.80;99.90;;;;;;5015999;28;20230;-59
2023/10/14 12:51:17;;;;;;;3.60;2.73;;;20.80;99.90;;;;;;5021934;28;20323;-59
2023/10/14 12:53:46;;;;;;;2.37;2.27;;;20.90;99.90;;;;;;5013031;28;20226;-59
2023/10/14 12:56:16;;;;;;;3.67;2.87;;;20.80;99.90;;;;;;5022410;28;20719;-59
2023/10/14 12:58:45;;;;;;;4.30;3.07;;;21.00;99.90;;;;;;5031303;28;20199;-59
2023/10/14 13:01:16;;;;;;;6.73;3.90;;;20.90;99.90;;;;;;5031413;28;20293;-59
2023/10/14 13:03:46;;;;;;;2.83;2.63;;;20.90;99.90;;;;;;5025760;28;20481;-66
2023/10/14 13:06:14;;;;;;;2.70;2.50;;;20.90;99.90;;;;;;5013154;28;20584;-59